Time;durP1;ratioP1;P1;durP2;ratioP2;P2;SDS_P1;SDS_P2;PMS_P1;PMS_P2;Temp;Humidity;BMP_temperature;BMP_pressure;BME280_temperature;BME280_humidity;BME280_pressure;Samples;Min_cycle;Max_cycle;Signal;HPM_P1;HPM_P2
2021/01/21 00:01:56;;;;;;;1.80;1.00;;;;;;;7.11;79.16;96690.09;5045286;28;20208;-73
2021/01/21 00:04:22;;;;;;;2.80;1.30;;;;;;;7.31;78.12;96698.78;5050741;28;20201;-76
2021/01/21 00:06:49;;;;;;;3.70;1.33;;;;;;;7.42;75.50;96707.91;5051449;28;20669;-75
2021/01/21 00:09:16;;;;;;;2.13;1.53;;;;;;;7.36;73.06;96717.53;5051761;28;20714;-75
2021/01/21 00:11:43;;;;;;;2.87;1.60;;;;;;;7.50;73.33;96713.78;5051819;28;20225;-74
2021/01/21 00:14:10;;;;;;;2.50;1.70;;;;;;;7.57;70.58;96735.78;5050614;28;20311;-76
2021/01/21 00:16:37;;;;;;;5.60;1.40;;;;;;;7.53;71.45;96741.75;5050023;28;20202;-75
2021/01/21 00:19:04;;;;;;;2.37;1.70;;;;;;;7.58;70.07;96753.34;5051865;28;20222;-73
2021/01/21 00:21:31;;;;;;;2.87;1.50;;;;;;;7.60;72.17;96742.50;5051415;28;20194;-75
2021/01/21 00:23:58;;;;;;;2.90;1.60;;;;;;;7.61;71.42;96741.50;5051674;28;20206;-75
2021/01/21 00:26:25;;;;;;;2.60;1.70;;;;;;;7.40;73.77;96726.69;5051499;28;20210;-75
2021/01/21 00:28:52;;;;;;;2.87;1.47;;;;;;;7.46;72.68;96736.47;5050009;28;20233;-74
2021/01/21 00:31:18;;;;;;;2.67;1.60;;;;;;;7.37;74.63;96737.72;5050494;28;20578;-75
2021/01/21 00:33:45;;;;;;;2.27;1.43;;;;;;;7.07;78.29;96714.59;5051689;28;20218;-75
2021/01/21 00:36:13;;;;;;;3.77;1.70;;;;;;;7.02;77.94;96712.59;5049792;28;20210;-74
2021/01/21 00:38:40;;;;;;;1.90;1.60;;;;;;;7.21;75.64;96714.34;5051257;28;20267;-74
2021/01/21 00:41:07;;;;;;;5.40;2.23;;;;;;;7.07;78.81;96704.00;5050742;28;20243;-74
2021/01/21 00:43:34;;;;;;;2.43;1.97;;;;;;;6.85;81.21;96711.41;5050245;28;20751;-74
2021/01/21 00:46:01;;;;;;;2.60;1.47;;;;;;;7.04;80.40;96713.19;5049548;28;20213;-75
2021/01/21 00:48:28;;;;;;;3.23;1.63;;;;;;;6.92;84.46;96706.09;5051003;28;20225;-74
2021/01/21 00:50:54;;;;;;;2.43;1.60;;;;;;;6.98;84.08;96711.38;5050267;28;20208;-74
2021/01/21 00:53:22;;;;;;;3.73;2.10;;;;;;;6.88;84.31;96692.44;5050735;28;20650;-76
2021/01/21 00:55:49;;;;;;;4.43;2.30;;;;;;;6.93;82.65;96682.03;5050099;28;20300;-75
2021/01/21 00:58:16;;;;;;;2.97;1.80;;;;;;;6.92;85.26;96677.75;5048743;28;20235;-75
2021/01/21 01:00:42;;;;;;;1.87;1.20;;;;;;;6.88;90.71;96684.50;5049409;28;20217;-74
2021/01/21 01:03:09;;;;;;;4.87;1.50;;;;;;;6.87;89.52;96674.91;5050307;28;20263;-76
2021/01/21 01:05:36;;;;;;;2.93;1.50;;;;;;;6.71;92.20;96658.66;5050190;28;20208;-75
2021/01/21 01:08:04;;;;;;;1.93;1.37;;;;;;;6.87;89.89;96658.19;5050997;28;20315;-74
2021/01/21 01:10:31;;;;;;;2.90;1.60;;;;;;;6.84;89.99;96655.94;5049221;28;20209;-73
2021/01/21 01:12:58;;;;;;;2.90;1.67;;;;;;;6.67;94.11;96657.44;5050770;28;20267;-75
2021/01/21 01:15:27;;;;;;;2.60;1.70;;;;;;;6.77;92.55;96649.88;5050334;28;20206;-75
2021/01/21 01:17:54;;;;;;;4.70;1.87;;;;;;;6.82;92.11;96653.53;5049305;28;20713;-75
2021/01/21 01:20:20;;;;;;;3.67;1.67;;;;;;;6.76;93.11;96658.84;5050302;28;20216;-73
2021/01/21 01:22:50;;;;;;;4.90;1.60;;;;;;;6.62;95.51;96652.78;5050417;28;20211;-75
2021/01/21 01:25:17;;;;;;;2.60;1.40;;;;;;;6.49;98.93;96652.81;5048768;28;20198;-76
2021/01/21 01:27:44;;;;;;;3.77;1.77;;;;;;;6.65;96.72;96646.25;5050167;28;20587;-75
2021/01/21 01:30:12;;;;;;;3.13;1.70;;;;;;;6.59;95.64;96653.19;5050954;28;20204;-75
2021/01/21 01:32:39;;;;;;;4.30;1.57;;;;;;;6.75;94.54;96650.06;5050014;28;20251;-73
2021/01/21 01:35:07;;;;;;;2.73;1.57;;;;;;;6.44;97.91;96638.59;5049266;28;20211;-76
2021/01/21 01:37:34;;;;;;;3.20;1.40;;;;;;;6.64;96.23;96640.13;5049785;28;20306;-75
2021/01/21 01:40:01;;;;;;;3.90;1.70;;;;;;;6.65;91.72;96652.34;5049343;28;20209;-75
2021/01/21 01:42:28;;;;;;;2.90;1.57;;;;;;;6.92;87.40;96650.41;5050664;28;20209;-74
2021/01/21 01:44:55;;;;;;;2.13;1.20;;;;;;;7.11;86.75;96636.25;5048601;28;20212;-75
2021/01/21 01:47:22;;;;;;;2.23;1.23;;;;;;;7.11;85.79;96641.56;5050077;28;20219;-74
2021/01/21 01:49:49;;;;;;;1.90;1.23;;;;;;;7.12;84.01;96651.13;5046652;28;20213;-74
2021/01/21 01:52:16;;;;;;;0.80;0.70;;;;;;;7.31;80.26;96658.97;5050032;28;20636;-74
2021/01/21 01:54:43;;;;;;;1.20;0.87;;;;;;;7.38;72.27;96665.06;5050236;28;20223;-76
2021/01/21 01:57:09;;;;;;;1.23;0.90;;;;;;;7.45;71.99;96660.53;5048324;28;20279;-75
2021/01/21 01:59:37;;;;;;;1.30;0.80;;;;;;;7.95;67.61;96659.53;5049301;28;20205;-74
2021/01/21 02:02:05;;;;;;;3.00;0.83;;;;;;;8.27;61.63;96665.63;5049846;28;20211;-76
2021/01/21 02:04:32;;;;;;;2.00;1.00;;;;;;;8.34;62.54;96666.38;5050729;28;20202;-76
2021/01/21 02:06:59;;;;;;;1.30;0.63;;;;;;;8.28;63.08;96654.75;5049038;28;20293;-75
2021/01/21 02:09:25;;;;;;;1.03;0.57;;;;;;;8.51;59.23;96670.06;5050105;28;20666;-75
2021/01/21 02:12:01;;;;;;;1.07;0.60;;;;;;;8.45;60.83;96665.63;5048354;28;20701;-74
2021/01/21 02:14:32;;;;;;;1.47;0.70;;;;;;;8.52;59.23;96674.38;5049166;28;20213;-75
2021/01/21 02:17:05;;;;;;;1.40;0.87;;;;;;;8.65;57.71;96668.91;5052469;28;20217;-75
2021/01/21 02:20:13;;;;;;;1.90;0.70;;;;;;;8.30;62.85;96650.06;5053647;28;20213;-75
2021/01/21 02:23:22;;;;;;;0.80;0.60;;;;;;;8.68;57.43;96648.00;5051582;28;20212;-76
2021/01/21 02:25:52;;;;;;;1.33;0.70;;;;;;;8.56;59.00;96649.78;5049231;28;20658;-75
2021/01/21 02:28:54;;;;;;;2.30;1.00;;;;;;;8.97;54.71;96657.88;5052320;28;20229;-75
2021/01/21 02:31:28;;;;;;;2.03;0.67;;;;;;;9.21;52.63;96667.63;5051855;28;20225;-76
2021/01/21 02:33:57;;;;;;;1.00;0.70;;;;;;;9.24;50.70;96674.34;5053838;28;20221;-75
2021/01/21 02:36:31;;;;;;;1.10;0.97;;;;;;;8.99;53.66;96666.44;5051269;28;20678;-74
2021/01/21 02:39:00;;;;;;;1.23;0.87;;;;;;;9.31;50.10;96665.22;5053611;28;20225;-74
2021/01/21 02:41:27;;;;;;;2.40;0.90;;;;;;;9.38;50.82;96663.28;5053108;28;20206;-75
2021/01/21 02:43:54;;;;;;;0.90;0.67;;;;;;;9.32;51.45;96658.88;5053159;28;20275;-74
2021/01/21 02:46:21;;;;;;;1.73;0.80;;;;;;;9.29;50.57;96648.66;5051130;28;20252;-75
2021/01/21 02:48:50;;;;;;;0.83;0.70;;;;;;;9.39;50.94;96632.16;5053363;28;20237;-76
2021/01/21 02:51:24;;;;;;;1.40;0.70;;;;;;;9.06;55.02;96613.97;5053090;28;20274;-76
2021/01/21 02:54:02;;;;;;;2.73;0.90;;;;;;;9.21;53.67;96625.03;5053364;28;20223;-78
2021/01/21 02:56:29;;;;;;;2.30;0.80;;;;;;;9.14;53.37;96637.59;5053373;28;20522;-76
2021/01/21 02:58:56;;;;;;;1.20;0.80;;;;;;;9.27;51.66;96642.75;5047915;28;20230;-75
2021/01/21 03:01:23;;;;;;;2.20;0.90;;;;;;;9.24;52.10;96647.72;5051850;28;20207;-76
2021/01/21 03:03:51;;;;;;;3.60;0.80;;;;;;;9.29;50.16;96642.53;5051493;28;20661;-73
2021/01/21 03:06:20;;;;;;;1.00;0.60;;;;;;;9.65;49.71;96635.22;5052164;28;20209;-72
2021/01/21 03:08:47;;;;;;;1.07;0.70;;;;;;;9.74;46.23;96649.03;5053398;28;20234;-74
2021/01/21 03:11:15;;;;;;;2.57;0.43;;;;;;;9.67;48.05;96635.00;5052523;28;20206;-75
2021/01/21 03:13:42;;;;;;;2.70;0.80;;;;;;;9.17;50.82;96618.53;5051577;28;20201;-76
2021/01/21 03:16:09;;;;;;;2.90;0.80;;;;;;;9.74;47.80;96615.22;5051337;28;20259;-74
2021/01/21 03:18:36;;;;;;;1.03;0.60;;;;;;;9.89;46.32;96622.78;5051010;28;20713;-76
2021/01/21 03:21:03;;;;;;;0.87;0.60;;;;;;;9.97;46.08;96628.56;5052596;28;20229;-75
2021/01/21 03:23:30;;;;;;;1.13;0.60;;;;;;;9.86;45.51;96645.38;5051749;28;20197;-76
2021/01/21 03:25:57;;;;;;;1.93;0.70;;;;;;;9.85;45.61;96629.59;5052133;28;20262;-75
2021/01/21 03:28:24;;;;;;;1.67;0.67;;;;;;;9.85;46.21;96634.94;5047531;28;20238;-76
2021/01/21 03:30:51;;;;;;;0.93;0.57;;;;;;;9.73;46.30;96634.91;5051391;28;20208;-76
2021/01/21 03:33:18;;;;;;;1.13;0.53;;;;;;;9.76;47.54;96620.31;5052415;28;20222;-76
2021/01/21 03:35:44;;;;;;;1.30;0.87;;;;;;;9.91;44.91;96629.50;5052518;28;20208;-75
2021/01/21 03:38:11;;;;;;;1.50;0.80;;;;;;;9.78;45.34;96628.88;5052121;28;20234;-77
2021/01/21 03:40:39;;;;;;;1.07;0.70;;;;;;;9.79;45.55;96620.66;5052568;28;20217;-72
2021/01/21 03:43:06;;;;;;;0.90;0.53;;;;;;;9.93;45.19;96622.06;5051118;28;20203;-76
2021/01/21 03:45:32;;;;;;;1.57;1.07;;;;;;;9.93;45.59;96602.59;5047125;28;20210;-77
2021/01/21 03:47:59;;;;;;;0.70;0.67;;;;;;;10.02;44.80;96611.88;5051927;28;20229;-76
2021/01/21 03:50:26;;;;;;;0.67;0.67;;;;;;;9.88;45.95;96607.81;5051856;28;20675;-77
2021/01/21 03:52:53;;;;;;;3.77;0.60;;;;;;;9.96;45.44;96608.31;5049482;28;20230;-75
2021/01/21 03:55:20;;;;;;;1.60;0.50;;;;;;;10.14;44.62;96612.75;5050277;28;20198;-77
2021/01/21 03:57:47;;;;;;;0.50;0.50;;;;;;;10.07;44.92;96597.91;5045972;28;20230;-77
2021/01/21 04:00:15;;;;;;;0.87;0.60;;;;;;;9.85;46.26;96587.75;5050409;28;20679;-76
2021/01/21 04:02:42;;;;;;;0.60;0.57;;;;;;;9.81;46.62;96599.13;5052380;28;20265;-75
2021/01/21 04:05:09;;;;;;;0.60;0.50;;;;;;;9.41;49.38;96590.97;5050869;28;20210;-75
2021/01/21 04:07:36;;;;;;;0.87;0.70;;;;;;;9.42;48.52;96589.91;5051532;28;20225;-76
2021/01/21 04:10:04;;;;;;;1.90;0.90;;;;;;;9.35;49.85;96591.03;5052267;28;20206;-76
2021/01/21 04:12:31;;;;;;;0.80;0.60;;;;;;;9.36;49.37;96593.50;5051782;28;20272;-77
2021/01/21 04:14:58;;;;;;;1.20;0.80;;;;;;;9.57;47.91;96592.97;5051176;28;20688;-75
2021/01/21 04:17:25;;;;;;;1.07;0.60;;;;;;;9.49;48.07;96587.94;5050344;28;20228;-76
2021/01/21 04:19:52;;;;;;;1.13;0.60;;;;;;;9.62;46.95;96590.41;5050623;28;20213;-75
2021/01/21 04:22:19;;;;;;;0.87;0.50;;;;;;;9.21;50.50;96592.28;5050338;28;20212;-77
2021/01/21 04:24:45;;;;;;;1.80;0.50;;;;;;;9.42;48.45;96589.91;5051299;28;20667;-76
2021/01/21 04:27:12;;;;;;;0.67;0.40;;;;;;;9.48;47.74;96578.34;5051491;28;20198;-74
2021/01/21 04:29:39;;;;;;;0.50;0.50;;;;;;;9.83;45.92;96599.69;5052025;28;20293;-73
2021/01/21 04:32:07;;;;;;;0.93;0.57;;;;;;;9.93;45.84;96605.25;5051838;28;20225;-73
2021/01/21 04:34:34;;;;;;;1.67;0.73;;;;;;;9.90;46.22;96601.22;5052350;28;20280;-73
2021/01/21 04:37:00;;;;;;;2.13;0.90;;;;;;;9.70;48.68;96606.03;5046832;28;20214;-73
2021/01/21 04:39:27;;;;;;;1.13;0.70;;;;;;;9.42;50.28;96591.75;5050988;28;20203;-73
2021/01/21 04:41:54;;;;;;;3.87;0.77;;;;;;;9.39;48.84;96592.22;5051571;28;20366;-73
2021/01/21 04:44:21;;;;;;;1.10;0.70;;;;;;;9.55;47.55;96589.69;5051684;28;20268;-73
2021/01/21 04:46:47;;;;;;;0.67;0.50;;;;;;;9.80;46.28;96592.97;5051488;28;20199;-73
2021/01/21 04:49:15;;;;;;;0.60;0.50;;;;;;;9.79;46.21;96594.03;5052035;28;20588;-76
2021/01/21 04:51:43;;;;;;;0.63;0.40;;;;;;;9.85;46.17;96598.41;5051327;28;20230;-73
2021/01/21 04:54:10;;;;;;;0.73;0.50;;;;;;;9.92;46.13;96591.16;5052002;28;20285;-73
2021/01/21 04:56:40;;;;;;;0.80;0.50;;;;;;;9.90;46.07;96582.56;5044468;28;20195;-73
2021/01/21 04:59:10;;;;;;;0.47;0.47;;;;;;;9.94;45.98;96598.91;5051265;28;20222;-72
2021/01/21 05:01:37;;;;;;;1.33;0.67;;;;;;;10.03;46.16;96608.16;5048600;28;20198;-73
2021/01/21 05:04:05;;;;;;;1.03;0.57;;;;;;;10.13;45.04;96595.94;5052157;28;20206;-73
2021/01/21 05:06:33;;;;;;;0.63;0.50;;;;;;;10.15;45.47;96598.38;5051863;28;20203;-73
2021/01/21 05:09:00;;;;;;;0.70;0.50;;;;;;;10.26;44.71;96595.66;5051662;28;20226;-73
2021/01/21 05:11:27;;;;;;;2.33;0.60;;;;;;;10.27;44.40;96584.00;5051197;28;20214;-75
2021/01/21 05:13:55;;;;;;;0.70;0.50;;;;;;;10.23;45.28;96585.50;5048463;28;20252;-73
2021/01/21 05:16:22;;;;;;;0.83;0.40;;;;;;;10.33;44.53;96592.91;5051507;28;20696;-75
2021/01/21 05:18:49;;;;;;;0.50;0.50;;;;;;;10.33;44.18;96599.06;5051427;28;20272;-73
2021/01/21 05:21:17;;;;;;;1.37;0.60;;;;;;;10.38;44.39;96607.16;5051177;28;20233;-73
2021/01/21 05:23:46;;;;;;;1.40;0.60;;;;;;;10.49;44.04;96600.16;5051517;28;20260;-75
2021/01/21 05:26:13;;;;;;;0.53;0.50;;;;;;;10.58;43.43;96591.59;5051313;28;20198;-76
2021/01/21 05:28:41;;;;;;;0.30;0.30;;;;;;;10.59;43.41;96601.22;5050576;28;20702;-74
2021/01/21 05:31:08;;;;;;;0.60;0.50;;;;;;;10.55;43.65;96609.94;5048364;28;20198;-75
2021/01/21 05:33:35;;;;;;;1.53;0.77;;;;;;;10.48;44.07;96602.03;5051641;28;20203;-73
2021/01/21 05:36:05;;;;;;;0.80;0.60;;;;;;;10.49;43.47;96616.16;5050879;28;20626;-74
2021/01/21 05:38:32;;;;;;;0.57;0.57;;;;;;;10.77;43.04;96610.91;5051157;28;20273;-74
2021/01/21 05:41:00;;;;;;;0.70;0.50;;;;;;;10.60;43.70;96608.16;5045412;28;20217;-73
2021/01/21 05:43:28;;;;;;;1.47;0.70;;;;;;;10.59;43.48;96606.53;5051343;28;20203;-73
2021/01/21 05:45:54;;;;;;;1.37;0.50;;;;;;;10.62;43.58;96605.28;5050035;28;20192;-74
2021/01/21 05:48:21;;;;;;;1.20;0.60;;;;;;;10.58;43.27;96599.59;5053528;28;20222;-73
2021/01/21 05:50:48;;;;;;;0.83;0.53;;;;;;;10.64;43.07;96606.66;5053719;28;20211;-74
2021/01/21 05:53:17;;;;;;;2.20;0.70;;;;;;;10.70;42.63;96605.72;5057094;28;20227;-74
2021/01/21 05:55:45;;;;;;;1.33;0.60;;;;;;;10.86;42.05;96612.19;5057063;28;20261;-73
2021/01/21 05:58:12;;;;;;;1.37;0.57;;;;;;;10.90;41.80;96611.47;5056791;28;20223;-73
2021/01/21 06:00:40;;;;;;;0.53;0.53;;;;;;;11.08;41.50;96616.63;5055400;28;20213;-75
2021/01/21 06:03:18;;;;;;;3.13;0.70;;;;;;;10.49;44.09;96605.50;5052145;28;20192;-73
2021/01/21 06:05:45;;;;;;;0.73;0.50;;;;;;;10.68;42.86;96604.31;5055161;28;20250;-74
2021/01/21 06:08:12;;;;;;;0.40;0.40;;;;;;;10.83;42.14;96605.47;5049456;28;20285;-73
2021/01/21 06:10:39;;;;;;;1.17;0.53;;;;;;;10.89;42.42;96609.03;5055360;28;20206;-76
2021/01/21 06:13:07;;;;;;;1.70;0.60;;;;;;;10.29;44.34;96602.41;5055185;28;20783;-71
2021/01/21 06:15:37;;;;;;;0.50;0.47;;;;;;;10.80;42.79;96613.91;5054993;28;20196;-71
2021/01/21 06:18:05;;;;;;;1.33;0.60;;;;;;;10.61;44.01;96607.09;5055342;28;20322;-71
2021/01/21 06:20:32;;;;;;;1.60;0.47;;;;;;;10.56;43.87;96595.53;5054986;28;20195;-73
2021/01/21 06:23:03;;;;;;;1.80;0.60;;;;;;;10.31;44.53;96581.66;5054397;28;20258;-71
2021/01/21 06:25:31;;;;;;;0.80;0.60;;;;;;;10.31;45.35;96587.78;5052647;28;20260;-75
2021/01/21 06:28:01;;;;;;;1.87;0.60;;;;;;;10.44;43.77;96589.41;5053925;28;20603;-71
2021/01/21 06:30:29;;;;;;;1.00;0.60;;;;;;;10.70;42.91;96608.38;5053165;28;20230;-75
2021/01/21 06:33:02;;;;;;;1.80;0.60;;;;;;;10.60;42.94;96604.69;5054427;28;20223;-75
2021/01/21 06:35:33;;;;;;;1.23;0.50;;;;;;;10.43;43.87;96603.78;5056467;28;20206;-72
2021/01/21 06:38:06;;;;;;;1.20;0.50;;;;;;;10.49;44.57;96598.31;5054710;28;20227;-77
2021/01/21 06:40:34;;;;;;;0.77;0.50;;;;;;;10.60;42.79;96602.03;5055047;28;20187;-73
2021/01/21 06:43:07;;;;;;;0.60;0.60;;;;;;;10.58;44.20;96610.25;5054607;28;20287;-74
2021/01/21 06:45:35;;;;;;;0.70;0.47;;;;;;;10.68;42.98;96611.53;5046566;28;20291;-74
2021/01/21 06:48:03;;;;;;;2.00;0.90;;;;;;;10.89;42.67;96627.69;5049908;28;20223;-75
2021/01/21 06:50:31;;;;;;;2.43;0.67;;;;;;;10.63;43.72;96608.75;5053642;28;20675;-71
2021/01/21 06:52:59;;;;;;;3.33;0.60;;;;;;;10.86;43.42;96620.97;5054024;28;20226;-73
2021/01/21 06:55:27;;;;;;;4.03;0.80;;;;;;;10.55;44.71;96600.06;5052801;28;20211;-73
2021/01/21 06:57:53;;;;;;;2.70;0.80;;;;;;;10.76;44.30;96609.31;5052472;28;20237;-70
2021/01/21 07:00:39;;;;;;;0.50;0.50;;;;;;;10.82;45.08;96592.34;5046227;28;20203;-71
2021/01/21 07:03:07;;;;;;;2.67;0.80;;;;;;;10.66;46.23;96596.53;5050175;28;20834;-71
2021/01/21 07:05:34;;;;;;;1.47;0.80;;;;;;;10.88;45.25;96587.94;5050172;28;20206;-70
2021/01/21 07:08:06;;;;;;;1.77;0.97;;;;;;;11.17;44.76;96590.38;5049175;28;20223;-74
2021/01/21 07:10:35;;;;;;;0.60;0.50;;;;;;;10.86;47.36;96570.28;5054854;28;20730;-71
2021/01/21 07:13:06;;;;;;;2.13;0.50;;;;;;;11.04;48.56;96577.28;5055130;28;20227;-73
2021/01/21 07:15:40;;;;;;;1.43;0.57;;;;;;;11.17;49.49;96582.34;5055188;28;20202;-72
2021/01/21 07:18:16;;;;;;;1.07;0.80;;;;;;;11.19;51.24;96572.22;5054935;28;20225;-72
2021/01/21 07:21:08;;;;;;;0.83;0.50;;;;;;;11.11;53.13;96570.75;5053976;28;20250;-75
2021/01/21 07:23:43;;;;;;;2.13;0.70;;;;;;;10.75;57.51;96571.13;5045498;28;20199;-73
2021/01/21 07:26:30;;;;;;;0.63;0.40;;;;;;;11.10;58.70;96555.78;5053736;28;20211;-72
2021/01/21 07:29:02;;;;;;;0.37;0.37;;;;;;;11.24;58.77;96564.31;5048787;28;20238;-72
2021/01/21 07:31:30;;;;;;;1.33;0.53;;;;;;;11.03;60.75;96549.81;5053537;28;20199;-75
2021/01/21 07:34:23;;;;;;;1.93;0.60;;;;;;;10.96;62.95;96545.66;5054127;28;20266;-76
2021/01/21 07:37:11;;;;;;;2.00;0.60;;;;;;;11.08;63.37;96538.41;5048225;28;20202;-73
2021/01/21 07:39:49;;;;;;;2.57;0.60;;;;;;;11.06;64.62;96541.31;5054337;28;20264;-73
2021/01/21 07:42:16;;;;;;;0.73;0.60;;;;;;;10.91;66.31;96537.56;5050125;28;20208;-73
2021/01/21 07:44:53;;;;;;;0.60;0.50;;;;;;;11.09;66.24;96535.50;5052994;28;20220;-73
2021/01/21 07:47:30;;;;;;;0.87;0.60;;;;;;;11.34;65.64;96530.59;5053423;28;20596;-73
2021/01/21 07:50:36;;;;;;;0.63;0.47;;;;;;;11.45;64.86;96532.38;5049994;28;20197;-73
2021/01/21 07:53:05;;;;;;;0.50;0.50;;;;;;;11.35;66.26;96537.56;5053897;28;20296;-73
2021/01/21 07:55:33;;;;;;;0.60;0.43;;;;;;;11.47;65.14;96540.16;5052978;28;20199;-71
2021/01/21 07:58:35;;;;;;;0.83;0.53;;;;;;;11.42;65.84;96535.53;5053648;28;20250;-71
2021/01/21 08:01:05;;;;;;;1.57;0.70;;;;;;;11.62;64.30;96539.63;5049343;28;20211;-76
2021/01/21 08:03:34;;;;;;;0.97;0.50;;;;;;;11.36;66.18;96536.50;5053336;28;20188;-71
2021/01/21 08:06:25;;;;;;;1.83;0.60;;;;;;;11.27;67.12;96532.59;5052782;28;20611;-71
2021/01/21 08:08:54;;;;;;;1.53;0.43;;;;;;;11.41;65.93;96530.44;5052999;28;20267;-73
2021/01/21 08:11:23;;;;;;;3.93;0.87;;;;;;;11.35;66.07;96542.91;5052093;28;20316;-71
2021/01/21 08:13:56;;;;;;;0.73;0.50;;;;;;;11.52;64.79;96540.25;5052653;28;20230;-74
2021/01/21 08:16:23;;;;;;;0.40;0.40;;;;;;;11.59;64.61;96538.25;5052765;28;20255;-72
2021/01/21 08:18:54;;;;;;;1.23;0.63;;;;;;;11.62;64.41;96534.28;5052664;28;20221;-73
2021/01/21 08:21:22;;;;;;;0.90;0.57;;;;;;;11.77;63.38;96541.47;5048958;28;20198;-75
2021/01/21 08:23:56;;;;;;;0.67;0.43;;;;;;;11.82;62.96;96539.94;5048588;28;20200;-73
2021/01/21 08:26:24;;;;;;;0.87;0.50;;;;;;;12.02;62.24;96552.56;5049384;28;20203;-74
2021/01/21 08:28:51;;;;;;;0.70;0.50;;;;;;;11.96;62.15;96554.59;5052574;28;20251;-71
2021/01/21 08:31:20;;;;;;;1.77;0.70;;;;;;;11.80;63.20;96552.75;5049200;28;20213;-71
2021/01/21 08:33:51;;;;;;;1.07;0.60;;;;;;;11.67;65.01;96545.06;5053517;28;20227;-72
2021/01/21 08:36:23;;;;;;;1.43;0.60;;;;;;;11.90;63.40;96537.66;5052047;28;20279;-74
2021/01/21 08:38:50;;;;;;;3.30;0.40;;;;;;;11.93;64.05;96535.31;5053460;28;20230;-71
2021/01/21 08:41:18;;;;;;;0.47;0.30;;;;;;;11.78;65.35;96540.41;5050419;28;20568;-71
2021/01/21 08:43:46;;;;;;;0.97;0.60;;;;;;;11.84;65.36;96552.00;5053984;28;20240;-73
2021/01/21 08:46:14;;;;;;;0.47;0.47;;;;;;;12.02;65.25;96557.13;5055590;28;20215;-71
2021/01/21 08:48:41;;;;;;;0.80;0.50;;;;;;;12.08;65.09;96553.47;5058708;28;20231;-74
2021/01/21 08:51:23;;;;;;;0.40;0.40;;;;;;;11.78;67.34;96558.34;5050255;28;20204;-72
2021/01/21 08:53:50;;;;;;;1.40;0.50;;;;;;;11.98;67.00;96573.88;5044134;28;20213;-71
2021/01/21 08:56:18;;;;;;;0.67;0.40;;;;;;;12.17;65.86;96572.56;5054526;28;20209;-75
2021/01/21 08:58:45;;;;;;;0.87;0.50;;;;;;;12.11;66.26;96576.22;5054577;28;20237;-72
2021/01/21 09:01:12;;;;;;;0.50;0.40;;;;;;;12.13;65.80;96573.03;5051480;28;20204;-73
2021/01/21 09:03:45;;;;;;;0.40;0.40;;;;;;;12.08;66.04;96577.53;5052178;28;20811;-71
2021/01/21 09:06:13;;;;;;;0.40;0.40;;;;;;;12.38;63.63;96582.50;5052931;28;20672;-74
2021/01/21 09:08:47;;;;;;;0.80;0.57;;;;;;;11.95;66.53;96569.03;5053646;28;20232;-74
2021/01/21 09:11:32;;;;;;;2.00;0.80;;;;;;;12.26;65.26;96566.53;5050855;28;20215;-73
2021/01/21 09:13:59;;;;;;;0.80;0.47;;;;;;;11.98;66.45;96569.34;5052356;28;20201;-72
2021/01/21 09:16:45;;;;;;;2.13;0.50;;;;;;;12.68;62.47;96581.84;5051690;28;20219;-71
2021/01/21 09:19:14;;;;;;;0.53;0.40;;;;;;;12.26;64.40;96568.41;5051656;28;20305;-75
2021/01/21 09:21:57;;;;;;;0.97;0.50;;;;;;;12.49;62.42;96583.19;5043755;28;20201;-73
2021/01/21 09:24:24;;;;;;;0.77;0.50;;;;;;;12.78;60.77;96586.53;5051682;28;20196;-76
2021/01/21 09:27:10;;;;;;;0.40;0.40;;;;;;;12.64;61.93;96582.59;5054609;28;20197;-73
2021/01/21 09:29:47;;;;;;;1.03;0.57;;;;;;;12.74;62.09;96582.72;5046930;28;20639;-72
2021/01/21 09:32:15;;;;;;;0.97;0.70;;;;;;;12.46;63.34;96584.75;5055287;28;20226;-71
2021/01/21 09:34:55;;;;;;;1.20;0.50;;;;;;;12.60;63.13;96581.47;5055295;28;20208;-72
2021/01/21 09:37:22;;;;;;;0.63;0.53;;;;;;;12.62;62.54;96571.31;5055022;28;20224;-73
2021/01/21 09:39:50;;;;;;;1.10;0.40;;;;;;;12.68;63.00;96578.38;5051601;28;20216;-76
2021/01/21 09:42:18;;;;;;;1.67;0.40;;;;;;;12.99;61.28;96576.88;5048165;28;20194;-78
2021/01/21 09:44:44;;;;;;;0.40;0.40;;;;;;;12.62;64.09;96576.66;5049436;28;20267;-77
2021/01/21 09:47:11;;;;;;;0.63;0.50;;;;;;;12.73;64.13;96578.44;5052310;28;20291;-75
2021/01/21 09:49:40;;;;;;;0.57;0.40;;;;;;;12.39;66.94;96571.53;5053998;28;20234;-70
2021/01/21 09:52:07;;;;;;;1.10;0.60;;;;;;;12.89;63.85;96574.88;5050302;28;20219;-73
2021/01/21 09:54:35;;;;;;;0.63;0.60;;;;;;;13.03;62.82;96572.66;5055198;28;20203;-73
2021/01/21 09:57:02;;;;;;;1.80;0.60;;;;;;;13.09;62.90;96574.31;5052174;28;20623;-74
2021/01/21 09:59:30;;;;;;;2.53;0.60;;;;;;;13.13;61.78;96580.78;5052049;28;20233;-78
2021/01/21 10:01:56;;;;;;;1.40;0.70;;;;;;;12.49;66.50;96580.50;5053300;28;20314;-77
2021/01/21 10:04:23;;;;;;;0.40;0.40;;;;;;;13.03;64.13;96588.72;5052703;28;20647;-74
2021/01/21 10:06:50;;;;;;;0.90;0.60;;;;;;;13.43;61.50;96581.91;5057796;28;20202;-75
2021/01/21 10:09:17;;;;;;;1.40;0.60;;;;;;;13.55;60.86;96585.25;5053815;28;20276;-75
2021/01/21 10:11:44;;;;;;;1.00;0.57;;;;;;;13.30;62.37;96578.81;5053396;28;20206;-75
2021/01/21 10:14:11;;;;;;;1.77;0.53;;;;;;;13.52;61.53;96582.28;5048254;28;21474;-73
2021/01/21 10:16:39;;;;;;;0.50;0.50;;;;;;;13.98;58.69;96586.97;5057451;28;20202;-75
2021/01/21 10:19:06;;;;;;;0.63;0.50;;;;;;;13.84;59.92;96581.25;5052430;28;20280;-74
2021/01/21 10:21:34;;;;;;;1.07;0.60;;;;;;;14.12;59.10;96588.97;5058081;28;20202;-75
2021/01/21 10:24:00;;;;;;;0.40;0.40;;;11.40;99.90;;;14.30;57.59;96593.13;5054120;28;20213;-76
2021/01/21 10:26:27;;;;;;;0.60;0.57;;;11.60;99.90;;;14.37;56.60;96591.03;5029974;28;20207;-74
2021/01/21 10:28:53;;;;;;;0.70;0.40;;;11.70;99.90;;;13.94;59.19;96573.25;5030382;28;20606;-75
2021/01/21 10:31:19;;;;;;;1.13;0.60;;;11.80;99.90;;;14.62;56.14;96581.25;5034361;28;20206;-74
2021/01/21 10:33:47;;;;;;;1.00;0.77;;;12.00;99.90;;;14.39;56.89;96580.84;5034164;28;20248;-76
2021/01/21 10:36:14;;;;;;;1.20;0.60;;;12.00;99.90;;;14.85;55.42;96574.66;5034204;28;20205;-77
2021/01/21 10:38:41;;;;;;;0.60;0.50;;;12.20;99.90;;;14.60;56.96;96590.63;5029465;28;20227;-75
2021/01/21 10:41:08;;;;;;;1.13;0.50;;;12.10;99.90;;;14.40;57.69;96598.56;5032856;28;20206;-75
2021/01/21 10:43:35;;;;;;;2.00;0.40;;;12.20;99.90;;;14.71;56.27;96597.69;5029580;28;20312;-79
2021/01/21 10:46:01;;;;;;;1.57;0.53;;;12.10;99.90;;;14.57;56.67;96591.97;5033364;28;20214;-76
2021/01/21 10:48:28;;;;;;;0.83;0.40;;;12.00;99.90;;;14.16;58.56;96599.97;5029211;28;20242;-76
2021/01/21 10:50:56;;;;;;;1.33;0.40;;;11.90;99.90;;;13.88;60.98;96592.25;5034340;28;20210;-76
2021/01/21 10:53:23;;;;;;;1.83;0.60;;;11.70;99.90;;;13.68;66.75;96594.75;5032537;28;20226;-77
2021/01/21 10:55:50;;;;;;;0.70;0.57;;;11.50;99.90;;;13.61;67.98;96586.91;5032326;28;20207;-76
2021/01/21 10:58:17;;;;;;;0.40;0.40;;;11.40;99.90;;;13.88;64.89;96582.31;5033972;28;20327;-78
2021/01/21 11:00:45;;;;;;;0.73;0.40;;;11.40;99.90;;;13.80;66.00;96598.91;5033035;28;20207;-79
2021/01/21 11:03:12;;;;;;;0.77;0.40;;;11.50;99.90;;;13.94;64.81;96586.66;5033147;28;20203;-79
2021/01/21 11:05:40;;;;;;;0.70;0.40;;;11.50;99.90;;;14.07;63.88;96590.78;5035345;28;20215;-74
2021/01/21 11:08:07;;;;;;;0.47;0.47;;;11.60;99.90;;;14.10;65.38;96601.81;5033250;28;20225;-75
2021/01/21 11:10:34;;;;;;;0.80;0.50;;;11.70;99.90;;;14.54;64.11;96592.47;5032653;28;20210;-76
2021/01/21 11:13:01;;;;;;;0.30;0.30;;;12.00;99.90;;;14.46;63.47;96589.47;5033299;28;20226;-76
2021/01/21 11:15:27;;;;;;;0.87;0.63;;;12.20;99.90;;;14.86;61.18;96600.44;5031555;28;20236;-76
2021/01/21 11:17:55;;;;;;;1.57;0.60;;;12.20;99.90;;;14.50;62.29;96590.59;5030430;28;20227;-75
2021/01/21 11:20:22;;;;;;;0.47;0.47;;;12.10;99.90;;;14.45;61.96;96590.56;5031004;28;20203;-74
2021/01/21 11:22:49;;;;;;;0.80;0.60;;;12.00;99.90;;;14.39;62.85;96588.91;5027751;28;20202;-75
2021/01/21 11:25:16;;;;;;;2.27;0.70;;;11.90;99.90;;;14.02;65.38;96586.19;5029656;28;20257;-75
2021/01/21 11:27:43;;;;;;;2.60;0.90;;;11.80;99.90;;;14.20;64.63;96590.38;5031766;28;20238;-74
2021/01/21 11:30:12;;;;;;;0.50;0.50;;;11.90;99.90;;;14.69;62.38;96591.78;5023873;28;20222;-74
2021/01/21 11:32:39;;;;;;;0.70;0.60;;;11.90;99.90;;;14.77;61.88;96596.63;5033121;28;20293;-75
2021/01/21 11:35:07;;;;;;;0.77;0.50;;;12.20;99.90;;;14.87;61.42;96594.81;5035662;28;20214;-77
2021/01/21 11:37:34;;;;;;;0.63;0.50;;;12.30;99.90;;;14.43;64.07;96582.75;5028755;28;20229;-77